Time;durP1;ratioP1;P1;durP2;ratioP2;P2;SDS_P1;SDS_P2;PMS_P1;PMS_P2;Temp;Humidity;BMP_temperature;BMP_pressure;BME280_temperature;BME280_humidity;BME280_pressure;Samples;Min_cycle;Max_cycle;Signal;HPM_P1;HPM_P2
2023/08/10 00:00:12;;;;;;;3.70;1.10;;;17.50;64.30;;;;;;5034024;28;20210;-78
2023/08/10 00:02:39;;;;;;;1.67;1.02;;;17.50;64.40;;;;;;5017477;28;20046;-78
2023/08/10 00:05:05;;;;;;;3.42;1.30;;;17.50;64.40;;;;;;5033885;28;20080;-78
2023/08/10 00:07:33;;;;;;;3.17;1.33;;;17.40;64.40;;;;;;5017505;28;20045;-77
2023/08/10 00:09:58;;;;;;;4.40;1.00;;;17.40;64.50;;;;;;5017596;28;20045;-77
2023/08/10 00:12:24;;;;;;;2.97;1.05;;;17.40;64.50;;;;;;5017328;28;20525;-76
2023/08/10 00:14:50;;;;;;;3.47;1.38;;;17.40;65.00;;;;;;5017153;28;20087;-77
2023/08/10 00:17:16;;;;;;;3.47;1.10;;;17.40;64.60;;;;;;5017016;28;20048;-77
2023/08/10 00:19:42;;;;;;;3.08;1.17;;;17.40;64.70;;;;;;5033820;28;20486;-77
2023/08/10 00:22:08;;;;;;;3.22;1.00;;;17.40;64.70;;;;;;5033393;28;20179;-77
2023/08/10 00:24:34;;;;;;;2.95;0.80;;;17.40;64.90;;;;;;5000842;28;20045;-77
2023/08/10 00:26:59;;;;;;;2.95;1.00;;;17.40;64.90;;;;;;5000489;28;20033;-77
2023/08/10 00:29:25;;;;;;;3.85;1.60;;;17.40;64.90;;;;;;5000509;28;20126;-78
2023/08/10 00:31:51;;;;;;;3.40;1.00;;;17.30;65.00;;;;;;5016769;28;20037;-78
2023/08/10 00:34:17;;;;;;;2.70;1.48;;;17.30;65.00;;;;;;5016558;28;20057;-78
2023/08/10 00:36:43;;;;;;;2.92;1.10;;;17.30;64.90;;;;;;4984543;28;20041;-78
2023/08/10 00:39:08;;;;;;;2.63;1.17;;;17.30;65.00;;;;;;5016577;28;20484;-78
2023/08/10 00:41:34;;;;;;;3.42;1.02;;;17.30;65.10;;;;;;5016611;28;20049;-78
2023/08/10 00:44:01;;;;;;;4.55;1.20;;;17.30;65.10;;;;;;5033296;28;20042;-78
2023/08/10 00:46:27;;;;;;;3.42;1.20;;;17.20;65.20;;;;;;5034048;28;20536;-78
2023/08/10 00:48:53;;;;;;;3.92;1.25;;;17.30;65.30;;;;;;5033198;28;20485;-78
2023/08/10 00:51:19;;;;;;;2.63;1.33;;;17.20;65.20;;;;;;5000461;28;20163;-78
2023/08/10 00:53:45;;;;;;;4.80;1.08;;;17.20;65.30;;;;;;5000335;28;20041;-78
2023/08/10 00:56:11;;;;;;;1.42;0.82;;;17.20;65.40;;;;;;5000363;28;20496;-78
2023/08/10 00:58:37;;;;;;;3.38;1.52;;;17.20;65.50;;;;;;5032866;28;20514;-78
2023/08/10 01:01:04;;;;;;;2.67;1.23;;;17.20;65.50;;;;;;5033096;28;20095;-78
2023/08/10 01:03:30;;;;;;;4.13;1.48;;;17.20;65.50;;;;;;5016502;28;20439;-78
2023/08/10 01:06:14;;;;;;;2.97;1.10;;;17.20;65.50;;;;;;5016398;28;20064;-78
2023/08/10 01:09:04;;;;;;;3.45;1.05;;;17.20;65.50;;;;;;5032678;28;20049;-77
2023/08/10 01:11:44;;;;;;;2.60;1.10;;;17.20;65.60;;;;;;5032785;28;20141;-78
2023/08/10 01:14:19;;;;;;;3.08;1.08;;;17.20;65.70;;;;;;5032775;28;20049;-78
2023/08/10 01:16:46;;;;;;;3.70;1.45;;;17.10;65.70;;;;;;5016207;28;20041;-78
2023/08/10 01:19:38;;;;;;;3.42;1.52;;;17.10;65.80;;;;;;4999772;28;20051;-78
2023/08/10 01:22:13;;;;;;;4.85;2.30;;;17.20;65.90;;;;;;5032237;28;20045;-78
2023/08/10 01:24:41;;;;;;;2.83;1.00;;;17.10;65.90;;;;;;5032190;28;20052;-78
2023/08/10 01:27:11;;;;;;;4.80;1.08;;;17.10;65.90;;;;;;5016087;28;20040;-78
2023/08/10 01:29:38;;;;;;;3.03;1.30;;;17.10;65.90;;;;;;5032225;28;20496;-78
2023/08/10 01:32:04;;;;;;;2.35;1.33;;;17.10;65.90;;;;;;5015728;28;20076;-78
2023/08/10 01:34:30;;;;;;;2.25;1.10;;;17.10;66.00;;;;;;5015809;28;20140;-78
2023/08/10 01:36:55;;;;;;;2.33;1.27;;;17.10;66.00;;;;;;5031975;28;20136;-78
2023/08/10 01:39:21;;;;;;;3.20;1.35;;;17.00;65.90;;;;;;4999136;28;20037;-78
2023/08/10 01:41:47;;;;;;;2.78;0.93;;;17.10;66.00;;;;;;4999305;28;20113;-78
2023/08/10 01:44:12;;;;;;;4.10;1.23;;;17.10;66.00;;;;;;5031811;28;20440;-78
2023/08/10 01:46:40;;;;;;;2.67;1.08;;;17.00;66.00;;;;;;4999203;28;20037;-78
2023/08/10 01:49:11;;;;;;;2.58;0.90;;;17.00;66.00;;;;;;4999282;28;20040;-78
2023/08/10 01:51:39;;;;;;;2.42;1.08;;;17.00;66.00;;;;;;5031631;28;20042;-78
2023/08/10 01:54:07;;;;;;;2.42;1.20;;;17.00;66.10;;;;;;5031240;28;20374;-78
2023/08/10 01:56:33;;;;;;;2.72;0.93;;;16.90;66.10;;;;;;5031836;28;20142;-78
2023/08/10 01:58:59;;;;;;;1.63;0.93;;;16.90;66.10;;;;;;5031970;28;20045;-78
2023/08/10 02:01:25;;;;;;;2.17;1.20;;;16.90;66.10;;;;;;4999393;28;20496;-78
2023/08/10 02:03:51;;;;;;;3.47;1.45;;;16.90;66.10;;;;;;4998853;28;20133;-78
2023/08/10 02:06:17;;;;;;;3.55;1.30;;;16.90;66.30;;;;;;5015600;28;20126;-78
2023/08/10 02:08:43;;;;;;;2.13;1.20;;;16.90;66.40;;;;;;5015349;28;20485;-78
2023/08/10 02:11:08;;;;;;;3.25;1.52;;;16.90;66.40;;;;;;4999092;28;20129;-78
2023/08/10 02:13:34;;;;;;;2.75;1.27;;;16.90;66.50;;;;;;5015373;28;20037;-78
2023/08/10 02:16:00;;;;;;;2.80;1.10;;;16.80;66.50;;;;;;5015507;28;20128;-78
2023/08/10 02:18:25;;;;;;;2.08;1.05;;;16.80;66.50;;;;;;5015184;28;20477;-79
2023/08/10 02:20:51;;;;;;;3.90;1.20;;;16.80;66.50;;;;;;5015269;28;20044;-79
2023/08/10 02:23:17;;;;;;;3.28;1.20;;;16.80;66.50;;;;;;5014731;28;20045;-78
2023/08/10 02:25:43;;;;;;;2.53;1.13;;;16.80;66.60;;;;;;5015242;28;20037;-78
2023/08/10 02:28:08;;;;;;;2.25;1.40;;;16.80;66.60;;;;;;4999230;28;20045;-78
2023/08/10 02:30:34;;;;;;;5.35;1.48;;;16.70;66.50;;;;;;4998991;28;20120;-78
2023/08/10 02:33:00;;;;;;;1.70;1.13;;;16.70;66.50;;;;;;5015116;28;20064;-78
2023/08/10 02:35:26;;;;;;;2.78;1.23;;;16.70;66.50;;;;;;5015264;28;20049;-78
2023/08/10 02:37:51;;;;;;;4.65;1.58;;;16.70;66.50;;;;;;5015550;28;20076;-78
2023/08/10 02:40:17;;;;;;;2.20;1.30;;;16.60;66.50;;;;;;5031737;28;20096;-78
2023/08/10 02:42:43;;;;;;;2.20;1.10;;;16.60;66.40;;;;;;4999003;28;20045;-78
2023/08/10 02:45:09;;;;;;;2.97;1.13;;;16.60;66.50;;;;;;5015150;28;20129;-78
2023/08/10 02:47:35;;;;;;;2.75;1.42;;;16.60;66.50;;;;;;5031236;28;20045;-78
2023/08/10 02:50:02;;;;;;;2.05;1.13;;;16.60;66.50;;;;;;5015105;28;20199;-78
2023/08/10 02:52:28;;;;;;;3.63;1.30;;;16.50;66.50;;;;;;5015102;28;20049;-78
2023/08/10 02:54:54;;;;;;;2.72;1.27;;;16.50;66.60;;;;;;5014903;28;20116;-78
2023/08/10 02:57:20;;;;;;;1.70;1.10;;;16.50;66.70;;;;;;5015231;28;20067;-78
2023/08/10 02:59:45;;;;;;;3.75;1.58;;;16.50;66.70;;;;;;4998573;28;20179;-78
2023/08/10 03:02:16;;;;;;;1.80;1.08;;;16.40;66.80;;;;;;5014853;28;20041;-78
2023/08/10 03:04:42;;;;;;;5.13;1.48;;;16.40;66.90;;;;;;5032401;28;20045;-77
2023/08/10 03:07:07;;;;;;;2.47;1.20;;;16.40;67.00;;;;;;5002374;28;20199;-78
2023/08/10 03:09:33;;;;;;;4.20;1.10;;;16.40;67.10;;;;;;5018530;28;20464;-78
2023/08/10 03:11:59;;;;;;;2.70;1.10;;;16.30;67.10;;;;;;5018651;28;20042;-78
2023/08/10 03:14:24;;;;;;;4.22;1.90;;;16.30;67.20;;;;;;5001945;28;20111;-78
2023/08/10 03:16:50;;;;;;;2.33;1.20;;;16.30;67.30;;;;;;5018043;28;20046;-78
2023/08/10 03:19:16;;;;;;;2.80;1.30;;;16.30;67.50;;;;;;5002246;28;20045;-78
2023/08/10 03:21:41;;;;;;;2.15;1.23;;;16.30;67.60;;;;;;5001773;28;20497;-78
2023/08/10 03:24:07;;;;;;;3.55;1.50;;;16.30;67.70;;;;;;5018082;28;20042;-78
2023/08/10 03:26:33;;;;;;;3.78;1.63;;;16.20;67.80;;;;;;5001746;28;20037;-78
2023/08/10 03:28:59;;;;;;;3.35;1.70;;;16.20;67.90;;;;;;5017927;28;20042;-78
2023/08/10 03:31:24;;;;;;;2.75;1.45;;;16.20;68.00;;;;;;5034606;28;20037;-78
2023/08/10 03:33:50;;;;;;;2.72;1.52;;;16.20;68.20;;;;;;5034373;28;20389;-78
2023/08/10 03:36:16;;;;;;;2.85;1.75;;;16.20;68.30;;;;;;4985783;28;20052;-78
2023/08/10 03:38:42;;;;;;;2.40;1.70;;;16.20;68.40;;;;;;5001782;28;20042;-78
2023/08/10 03:41:07;;;;;;;2.65;1.67;;;16.20;68.50;;;;;;5034443;28;20095;-78
2023/08/10 03:43:33;;;;;;;4.57;1.70;;;16.20;68.60;;;;;;4985377;28;20060;-78
2023/08/10 03:46:02;;;;;;;4.80;1.58;;;16.20;68.70;;;;;;5001598;28;20129;-78
2023/08/10 03:48:27;;;;;;;3.58;1.58;;;16.10;68.70;;;;;;5017833;28;20381;-78
2023/08/10 03:50:53;;;;;;;2.25;1.50;;;16.20;68.90;;;;;;5001156;28;20044;-78
2023/08/10 03:53:19;;;;;;;5.07;1.92;;;16.10;68.90;;;;;;5001489;28;20048;-78
2023/08/10 03:55:44;;;;;;;3.40;1.20;;;16.10;69.00;;;;;;5034185;28;20481;-78
2023/08/10 03:58:10;;;;;;;2.33;1.48;;;16.10;69.10;;;;;;5033843;28;20061;-78
2023/08/10 04:00:36;;;;;;;4.03;1.60;;;16.10;69.00;;;;;;5017961;28;20051;-77
2023/08/10 04:03:02;;;;;;;3.42;1.98;;;16.10;69.10;;;;;;5017308;28;20045;-78
2023/08/10 04:05:28;;;;;;;5.10;2.40;;;16.10;69.10;;;;;;5017356;28;20041;-78
2023/08/10 04:07:53;;;;;;;5.15;2.10;;;16.10;69.30;;;;;;5033634;28;20539;-78
2023/08/10 04:10:19;;;;;;;2.92;1.58;;;16.10;69.30;;;;;;5017523;28;20052;-78
2023/08/10 04:12:45;;;;;;;3.35;1.40;;;16.10;69.40;;;;;;5033739;28;20128;-78
2023/08/10 04:15:11;;;;;;;4.18;1.60;;;16.10;69.40;;;;;;4984665;28;20077;-78
2023/08/10 04:17:37;;;;;;;2.22;1.50;;;16.10;69.40;;;;;;5000359;28;20048;-77
2023/08/10 04:20:08;;;;;;;3.45;2.20;;;16.10;69.50;;;;;;5016863;28;20128;-78
2023/08/10 04:22:34;;;;;;;2.90;1.77;;;16.10;69.40;;;;;;5033502;28;20084;-78
2023/08/10 04:25:02;;;;;;;3.22;1.83;;;16.10;69.50;;;;;;5016691;28;20528;-78
2023/08/10 04:27:27;;;;;;;1.85;1.27;;;16.10;69.50;;;;;;5033261;28;20554;-78
2023/08/10 04:29:53;;;;;;;5.47;1.83;;;16.10;69.50;;;;;;5016764;28;20038;-78
2023/08/10 04:32:19;;;;;;;4.80;2.75;;;16.10;69.50;;;;;;5016834;28;20091;-78
2023/08/10 04:34:44;;;;;;;3.03;1.42;;;16.10;69.80;;;;;;4984307;28;20041;-78
2023/08/10 04:37:10;;;;;;;3.28;2.00;;;16.10;70.00;;;;;;4984015;28;20080;-78
2023/08/10 04:39:36;;;;;;;4.43;2.08;;;16.10;70.00;;;;;;5000060;28;20447;-78
2023/08/10 04:42:02;;;;;;;2.78;1.50;;;16.10;70.00;;;;;;5000331;28;20091;-78
2023/08/10 04:44:29;;;;;;;4.85;2.00;;;16.10;70.00;;;;;;5016468;28;20080;-78
2023/08/10 04:46:54;;;;;;;3.08;1.70;;;16.10;70.10;;;;;;5016290;28;20076;-78
2023/08/10 04:49:20;;;;;;;2.08;1.40;;;16.10;70.20;;;;;;5016200;28;20045;-78
2023/08/10 04:51:46;;;;;;;3.80;1.70;;;16.10;70.10;;;;;;4999654;28;20041;-78
2023/08/10 04:54:12;;;;;;;2.92;1.55;;;16.10;70.10;;;;;;5032458;28;20045;-78
2023/08/10 04:56:38;;;;;;;2.47;1.55;;;16.10;70.20;;;;;;5032115;28;20052;-77
2023/08/10 04:59:04;;;;;;;4.95;2.55;;;16.10;70.20;;;;;;5032492;28;20366;-78
2023/08/10 05:01:30;;;;;;;3.08;1.77;;;16.10;70.60;;;;;;4999816;28;20111;-78
2023/08/10 05:03:56;;;;;;;4.03;1.98;;;16.10;70.70;;;;;;5032387;28;20072;-78
2023/08/10 05:06:22;;;;;;;4.07;2.03;;;16.10;70.90;;;;;;5016072;28;20037;-78
2023/08/10 05:08:48;;;;;;;5.45;2.80;;;16.10;70.90;;;;;;5032546;28;20084;-78
2023/08/10 05:11:13;;;;;;;2.22;1.80;;;16.10;71.00;;;;;;5015922;28;20073;-77
2023/08/10 05:13:40;;;;;;;4.43;2.22;;;16.10;71.00;;;;;;4999733;28;20067;-77
2023/08/10 05:16:06;;;;;;;4.60;2.00;;;16.10;71.10;;;;;;5032234;28;20052;-78
2023/08/10 05:18:31;;;;;;;3.78;1.92;;;16.10;71.20;;;;;;5016076;28;20041;-78
2023/08/10 05:21:01;;;;;;;3.58;2.25;;;16.10;71.30;;;;;;4983355;28;20037;-78
2023/08/10 05:23:26;;;;;;;3.35;2.00;;;16.10;71.40;;;;;;5032220;28;20496;-77
2023/08/10 05:25:53;;;;;;;4.75;1.77;;;16.10;71.50;;;;;;5032040;28;20037;-78
2023/08/10 05:28:18;;;;;;;4.35;2.28;;;16.10;71.40;;;;;;5014969;28;20056;-78
2023/08/10 05:30:44;;;;;;;3.40;2.05;;;16.10;71.60;;;;;;5015865;28;20119;-78
2023/08/10 05:33:10;;;;;;;4.57;2.10;;;16.10;71.80;;;;;;4982767;28;20054;-78
2023/08/10 05:35:36;;;;;;;4.13;1.95;;;16.10;71.90;;;;;;5032081;28;20049;-78
2023/08/10 05:38:02;;;;;;;5.18;2.65;;;16.10;72.00;;;;;;5032079;28;20090;-78
2023/08/10 05:40:28;;;;;;;4.22;1.95;;;16.10;72.30;;;;;;5032180;28;20049;-77
2023/08/10 05:42:55;;;;;;;4.70;2.60;;;16.10;72.50;;;;;;5015658;28;20480;-78
2023/08/10 05:45:21;;;;;;;4.00;2.20;;;16.10;72.70;;;;;;5015575;28;20038;-77
2023/08/10 05:47:50;;;;;;;4.43;1.95;;;16.20;73.10;;;;;;5015540;28;20418;-77
2023/08/10 05:50:16;;;;;;;4.78;2.20;;;16.10;73.30;;;;;;5032006;28;20042;-78
2023/08/10 05:52:45;;;;;;;3.40;1.58;;;16.20;73.60;;;;;;5015363;28;20052;-77
2023/08/10 05:55:12;;;;;;;4.07;2.20;;;16.20;73.80;;;;;;5031750;28;20041;-77
2023/08/10 05:57:39;;;;;;;6.15;2.50;;;16.30;73.90;;;;;;5015563;28;20480;-78
2023/08/10 06:00:05;;;;;;;4.22;2.30;;;16.30;74.10;;;;;;5015851;28;20053;-78
2023/08/10 06:02:31;;;;;;;4.25;2.10;;;16.30;74.30;;;;;;5015511;28;20480;-78
2023/08/10 06:04:57;;;;;;;3.33;2.08;;;16.30;74.40;;;;;;5015524;28;20128;-77
2023/08/10 06:07:23;;;;;;;2.65;1.90;;;16.40;74.50;;;;;;5031815;28;20588;-77
2023/08/10 06:09:48;;;;;;;3.95;1.98;;;16.40;74.60;;;;;;5031492;28;20489;-77
2023/08/10 06:12:16;;;;;;;4.35;1.83;;;16.40;74.60;;;;;;5015381;28;20125;-77
2023/08/10 06:14:42;;;;;;;4.03;1.52;;;16.50;74.70;;;;;;4999795;28;20461;-77
2023/08/10 06:17:07;;;;;;;5.90;1.65;;;16.50;74.80;;;;;;5015409;28;20132;-77
2023/08/10 06:19:34;;;;;;;5.75;1.85;;;16.50;74.70;;;;;;5031692;28;20405;-78
2023/08/10 06:22:00;;;;;;;6.13;2.65;;;16.60;74.90;;;;;;4998908;28;20045;-77
2023/08/10 06:24:26;;;;;;;6.95;2.38;;;16.60;75.10;;;;;;5015045;28;20053;-77
2023/08/10 06:26:52;;;;;;;5.05;2.00;;;16.70;75.30;;;;;;5031827;28;20038;-78
2023/08/10 06:29:17;;;;;;;5.00;2.22;;;16.80;75.40;;;;;;5031687;28;20465;-78
2023/08/10 06:31:43;;;;;;;3.30;1.60;;;16.80;75.10;;;;;;5031287;28;20121;-78
2023/08/10 06:34:09;;;;;;;4.63;1.60;;;16.90;75.00;;;;;;5031630;28;20057;-78
2023/08/10 06:36:37;;;;;;;3.20;1.63;;;17.00;74.80;;;;;;4998652;28;20037;-77
2023/08/10 06:39:04;;;;;;;3.65;1.52;;;17.00;74.60;;;;;;4991080;28;20600;-78
2023/08/10 06:41:30;;;;;;;6.50;1.75;;;17.10;74.50;;;;;;5005893;28;20042;-78
2023/08/10 06:43:56;;;;;;;2.92;1.35;;;17.10;74.40;;;;;;5015709;28;20049;-78
2023/08/10 06:46:22;;;;;;;3.88;1.88;;;17.20;74.30;;;;;;5019624;28;20037;-78
2023/08/10 06:48:47;;;;;;;3.92;1.40;;;17.30;74.10;;;;;;5003297;28;20543;-78
2023/08/10 06:51:13;;;;;;;5.47;1.75;;;17.30;73.80;;;;;;5019904;28;20041;-78
2023/08/10 06:53:39;;;;;;;5.90;1.75;;;17.40;73.60;;;;;;5035768;28;20084;-78
2023/08/10 06:56:05;;;;;;;6.20;1.77;;;17.40;73.30;;;;;;5019348;28;20080;-78
2023/08/10 06:58:33;;;;;;;5.10;1.60;;;17.50;73.00;;;;;;5035121;28;20485;-78
2023/08/10 07:01:00;;;;;;;3.30;1.58;;;17.60;72.70;;;;;;5035332;28;20464;-78
2023/08/10 07:03:26;;;;;;;5.40;1.27;;;17.60;72.40;;;;;;5018481;28;20049;-78
2023/08/10 07:05:52;;;;;;;4.35;1.30;;;17.70;72.20;;;;;;5018252;28;20042;-78
2023/08/10 07:08:17;;;;;;;3.92;1.63;;;17.80;72.30;;;;;;5012161;28;20038;-78
2023/08/10 07:17:44;;;;;;;7.93;2.08;;;18.00;71.50;;;;;;5529561;22;20455;-76
2023/08/10 07:20:10;;;;;;;3.47;1.65;;;18.00;71.30;;;;;;5035721;28;20136;-76
2023/08/10 07:22:36;;;;;;;4.32;1.70;;;18.10;71.50;;;;;;5038140;28;20567;-77
2023/08/10 07:25:05;;;;;;;2.80;1.13;;;18.20;71.40;;;;;;5037931;28;20637;-76
2023/08/10 07:27:34;;;;;;;5.70;1.73;;;18.20;71.20;;;;;;5037846;28;20033;-76
2023/08/10 07:30:03;;;;;;;3.90;1.33;;;18.30;70.90;;;;;;5021494;28;20051;-76
2023/08/10 07:32:29;;;;;;;5.13;1.70;;;18.30;70.70;;;;;;5021659;28;20454;-77
2023/08/10 07:34:55;;;;;;;5.35;1.92;;;18.40;70.40;;;;;;5021467;28;20415;-77
2023/08/10 07:37:21;;;;;;;4.47;1.85;;;18.50;69.70;;;;;;5037573;28;20041;-77
2023/08/10 07:39:47;;;;;;;5.10;1.90;;;18.50;69.30;;;;;;5021198;28;20037;-77
2023/08/10 07:42:13;;;;;;;3.22;1.30;;;18.60;69.20;;;;;;5037354;28;20506;-77
2023/08/10 07:44:39;;;;;;;4.15;0.95;;;18.60;69.00;;;;;;5037258;28;20073;-77
2023/08/10 07:47:04;;;;;;;3.13;1.08;;;18.70;68.60;;;;;;5020659;28;20963;-77
2023/08/10 07:49:31;;;;;;;3.22;0.90;;;18.70;68.30;;;;;;5004425;28;20033;-77
2023/08/10 07:51:58;;;;;;;4.65;1.35;;;18.80;68.20;;;;;;5036702;28;20052;-78
2023/08/10 07:54:25;;;;;;;4.57;1.00;;;18.80;67.90;;;;;;5037358;28;20088;-77
2023/08/10 07:56:50;;;;;;;5.47;1.42;;;18.90;67.90;;;;;;5037193;28;20043;-77
2023/08/10 07:59:16;;;;;;;4.35;1.33;;;18.90;67.20;;;;;;5020470;28;20049;-77
2023/08/10 08:01:43;;;;;;;6.00;1.63;;;19.00;66.80;;;;;;5037122;28;20041;-76
2023/08/10 08:04:08;;;;;;;3.45;1.20;;;19.00;67.20;;;;;;5036943;28;20056;-78
2023/08/10 08:06:38;;;;;;;6.35;2.00;;;19.00;66.80;;;;;;5037029;28;20123;-76
2023/08/10 08:09:06;;;;;;;2.90;1.10;;;19.10;66.50;;;;;;5037109;28;20435;-77
2023/08/10 08:11:35;;;;;;;3.83;1.23;;;19.10;66.70;;;;;;5020630;28;20434;-77
2023/08/10 08:14:01;;;;;;;8.98;1.98;;;19.20;66.60;;;;;;5053562;28;20044;-77
2023/08/10 08:16:27;;;;;;;5.65;1.27;;;19.20;66.30;;;;;;5036939;28;20043;-77
2023/08/10 08:18:54;;;;;;;4.05;1.25;;;19.30;66.00;;;;;;5037047;28;20052;-77
2023/08/10 08:21:25;;;;;;;5.07;1.30;;;19.30;66.00;;;;;;5004585;28;20450;-77
2023/08/10 08:23:52;;;;;;;3.22;1.17;;;19.40;66.00;;;;;;5020118;28;20036;-77
2023/08/10 08:26:19;;;;;;;3.72;1.30;;;19.50;65.90;;;;;;5036760;28;20043;-78
2023/08/10 08:28:46;;;;;;;3.67;1.23;;;19.60;65.90;;;;;;5036724;28;20456;-77
2023/08/10 08:31:13;;;;;;;3.63;1.15;;;19.70;65.90;;;;;;5036635;28;20124;-77
2023/08/10 08:33:39;;;;;;;2.88;1.10;;;19.70;65.30;;;;;;5020337;28;20123;-77
2023/08/10 08:36:05;;;;;;;4.30;1.10;;;19.80;64.70;;;;;;5036500;28;20479;-78
2023/08/10 08:38:32;;;;;;;5.40;1.30;;;19.90;65.20;;;;;;5019800;28;20045;-77
2023/08/10 08:41:03;;;;;;;2.35;1.05;;;20.10;64.70;;;;;;5036468;28;20037;-78
2023/08/10 08:43:30;;;;;;;3.70;1.23;;;20.10;63.70;;;;;;5036304;28;20120;-78
2023/08/10 08:45:58;;;;;;;5.22;1.40;;;20.20;63.50;;;;;;5036223;28;20045;-78
2023/08/10 08:48:25;;;;;;;5.43;1.27;;;20.30;63.40;;;;;;5019456;28;20041;-78
2023/08/10 08:50:51;;;;;;;6.55;1.70;;;20.30;63.00;;;;;;5036151;28;20048;-77
2023/08/10 08:53:17;;;;;;;4.00;1.45;;;20.40;62.40;;;;;;5019755;28;20051;-77
2023/08/10 08:55:44;;;;;;;4.22;1.40;;;20.40;62.60;;;;;;5036211;28;20083;-78
2023/08/10 08:58:10;;;;;;;3.00;1.02;;;20.50;62.50;;;;;;5019728;28;20561;-78
2023/08/10 09:00:38;;;;;;;2.97;0.93;;;20.50;62.00;;;;;;5003275;28;20123;-77
2023/08/10 09:03:04;;;;;;;5.30;1.10;;;20.60;62.00;;;;;;5019733;28;20076;-77
2023/08/10 09:05:30;;;;;;;5.53;1.35;;;20.70;61.40;;;;;;5003251;28;20569;-77
2023/08/10 09:07:56;;;;;;;3.33;1.08;;;20.70;60.90;;;;;;5003148;28;20037;-78
2023/08/10 09:10:22;;;;;;;4.90;1.20;;;20.70;61.20;;;;;;5035776;28;20123;-78
2023/08/10 09:12:48;;;;;;;4.80;1.27;;;20.80;61.60;;;;;;5035860;28;20442;-77
2023/08/10 09:15:17;;;;;;;5.13;1.40;;;20.80;60.20;;;;;;5019281;28;20044;-77
2023/08/10 09:17:49;;;;;;;3.20;0.90;;;20.80;59.60;;;;;;5035467;28;20041;-77
2023/08/10 09:20:28;;;;;;;1.98;0.90;;;20.80;59.70;;;;;;5019051;28;20099;-77
2023/08/10 09:22:56;;;;;;;3.42;1.08;;;20.90;59.90;;;;;;5019187;28;20047;-77
2023/08/10 09:25:22;;;;;;;4.18;1.02;;;20.90;59.60;;;;;;5035659;28;20071;-78
2023/08/10 09:27:50;;;;;;;4.25;1.15;;;20.90;59.10;;;;;;5019278;28;20401;-77
2023/08/10 09:30:17;;;;;;;4.38;1.63;;;20.90;58.80;;;;;;5035677;28;20456;-77
2023/08/10 09:32:43;;;;;;;5.03;1.88;;;21.00;58.90;;;;;;5035521;28;20037;-77
2023/08/10 09:35:19;;;;;;;3.80;1.40;;;21.00;59.30;;;;;;5019032;28;20128;-76
2023/08/10 09:37:46;;;;;;;3.38;1.20;;;21.00;59.10;;;;;;5035430;28;20088;-76
2023/08/10 09:40:15;;;;;;;5.78;1.80;;;21.10;59.80;;;;;;5035235;28;20045;-77
2023/08/10 09:42:41;;;;;;;2.80;1.25;;;21.20;59.50;;;;;;5035232;28;20558;-76
2023/08/10 09:45:12;;;;;;;5.85;1.67;;;21.30;59.70;;;;;;5034971;28;20128;-76
2023/08/10 09:47:39;;;;;;;3.65;1.70;;;21.40;59.30;;;;;;5018809;28;20040;-77
2023/08/10 09:50:12;;;;;;;5.65;1.73;;;21.50;59.00;;;;;;5035030;28;20047;-76
2023/08/10 09:52:38;;;;;;;3.20;1.27;;;21.50;58.60;;;;;;5018986;28;20510;-78
2023/08/10 09:55:06;;;;;;;5.25;1.40;;;21.60;58.40;;;;;;5018912;28;20055;-78
2023/08/10 09:57:32;;;;;;;3.60;1.25;;;21.60;58.20;;;;;;5018933;28;20032;-78
2023/08/10 09:59:58;;;;;;;5.95;1.30;;;21.70;58.40;;;;;;5018723;28;20124;-79
2023/08/10 10:02:24;;;;;;;4.65;1.10;;;21.80;58.30;;;;;;5018094;28;20124;-79
2023/08/10 10:04:51;;;;;;;2.70;1.13;;;21.90;58.20;;;;;;5018597;28;20037;-78
2023/08/10 10:07:23;;;;;;;3.45;1.20;;;21.90;57.90;;;;;;5002075;28;20033;-78
2023/08/10 10:09:50;;;;;;;6.95;2.47;;;22.00;57.70;;;;;;5018732;28;20116;-78
2023/08/10 10:12:16;;;;;;;5.30;1.90;;;22.00;57.10;;;;;;5002407;28;20175;-77
2023/08/10 10:14:44;;;;;;;4.10;1.52;;;22.00;57.10;;;;;;5019829;28;20494;-77
2023/08/10 10:17:12;;;;;;;2.85;1.52;;;22.10;57.50;;;;;;5038127;28;20082;-78
2023/08/10 10:19:38;;;;;;;4.80;1.42;;;22.10;56.80;;;;;;5038807;28;20059;-77
2023/08/10 10:22:05;;;;;;;3.90;1.52;;;22.20;56.60;;;;;;5038840;28;20051;-77
2023/08/10 10:24:34;;;;;;;4.93;1.45;;;22.30;56.20;;;;;;5022394;28;20045;-77
2023/08/10 10:27:08;;;;;;;2.67;1.38;;;22.30;55.80;;;;;;5038793;28;20043;-77
2023/08/10 10:29:57;;;;;;;3.90;1.77;;;22.30;55.90;;;;;;5022204;28;20138;-77
2023/08/10 10:32:24;;;;;;;4.85;1.70;;;22.30;55.70;;;;;;5022483;28;20040;-76
2023/08/10 10:34:52;;;;;;;3.78;1.50;;;22.30;56.00;;;;;;5038708;28;20186;-77
2023/08/10 10:37:35;;;;;;;3.13;1.83;;;22.40;56.20;;;;;;5038636;28;20044;-77
2023/08/10 10:40:23;;;;;;;3.50;1.98;;;22.40;55.50;;;;;;5022237;28;20376;-77
2023/08/10 10:43:04;;;;;;;4.15;1.20;;;22.40;55.40;;;;;;5038850;28;20110;-77
2023/08/10 10:45:43;;;;;;;2.55;1.02;;;22.50;55.80;;;;;;5038526;28;20041;-77
2023/08/10 10:48:13;;;;;;;2.78;1.10;;;22.50;55.00;;;;;;5006052;28;20110;-77
2023/08/10 10:50:39;;;;;;;5.32;2.10;;;22.50;55.00;;;;;;5022030;28;20558;-77
2023/08/10 10:53:11;;;;;;;4.78;1.95;;;22.50;55.10;;;;;;5022030;28;20095;-77
2023/08/10 10:55:42;;;;;;;3.42;1.38;;;22.60;54.90;;;;;;5038625;28;20052;-77
2023/08/10 10:58:10;;;;;;;5.03;2.08;;;22.70;55.00;;;;;;5038306;28;20041;-77
2023/08/10 11:00:37;;;;;;;4.55;1.60;;;22.70;54.80;;;;;;5021850;28;20561;-77
2023/08/10 11:03:08;;;;;;;4.70;1.55;;;22.80;55.20;;;;;;5021690;28;20040;-77
2023/08/10 11:05:34;;;;;;;3.30;1.48;;;22.90;54.90;;;;;;5038237;28;20049;-77
2023/08/10 11:08:05;;;;;;;4.65;2.13;;;23.00;54.70;;;;;;5021614;28;20037;-77
2023/08/10 11:10:36;;;;;;;4.22;1.80;;;23.00;53.70;;;;;;5022168;28;20041;-77
2023/08/10 11:13:11;;;;;;;2.80;1.38;;;23.10;53.60;;;;;;5022492;28;20095;-75
2023/08/10 11:15:37;;;;;;;3.80;1.80;;;23.20;54.20;;;;;;5038224;28;20048;-76
2023/08/10 11:18:11;;;;;;;4.72;2.33;;;23.20;54.10;;;;;;5037599;28;20353;-76
2023/08/10 11:20:43;;;;;;;;;;;23.40;54.50;;;;;;5022024;28;20404;-76
2023/08/10 11:23:09;;;;;;;4.68;1.92;;;23.40;54.70;;;;;;5038026;28;19916;-76
2023/08/10 11:25:35;;;;;;;4.20;2.30;;;23.50;54.20;;;;;;5020119;28;20057;-77
2023/08/10 11:28:01;;;;;;;3.63;2.10;;;23.60;54.00;;;;;;5004760;28;20377;-78
2023/08/10 11:30:27;;;;;;;3.92;1.88;;;23.70;52.70;;;;;;5021589;28;20442;-77
2023/08/10 11:32:54;;;;;;;3.15;1.70;;;23.80;52.90;;;;;;5021130;28;20037;-78
2023/08/10 11:35:24;;;;;;;3.85;1.58;;;23.90;52.90;;;;;;5038011;28;20517;-78
2023/08/10 11:37:50;;;;;;;4.63;2.25;;;24.00;53.20;;;;;;5037911;28;20099;-78
2023/08/10 11:40:22;;;;;;;3.05;1.65;;;24.10;52.60;;;;;;5021023;28;20087;-78
2023/08/10 11:43:14;;;;;;;6.78;3.00;;;24.30;52.80;;;;;;5037696;28;20181;-78
2023/08/10 11:45:40;;;;;;;4.32;2.35;;;24.40;50.50;;;;;;5037264;28;20044;-79
2023/08/10 11:48:13;;;;;;;4.43;2.20;;;24.40;50.30;;;;;;5021171;28;20063;-78
2023/08/10 11:50:39;;;;;;;3.65;2.08;;;24.50;51.60;;;;;;5037762;28;20055;-79
2023/08/10 11:53:22;;;;;;;4.05;2.35;;;24.60;51.00;;;;;;5037276;28;20509;-78
2023/08/10 11:55:50;;;;;;;4.55;2.15;;;24.60;50.70;;;;;;5037400;28;20495;-78
2023/08/10 11:58:18;;;;;;;5.13;2.30;;;24.60;51.70;;;;;;5037444;28;20459;-78
2023/08/10 12:00:50;;;;;;;2.55;1.80;;;24.70;51.60;;;;;;5020648;28;20068;-78
2023/08/10 12:03:18;;;;;;;3.05;2.00;;;24.80;51.00;;;;;;5037061;28;20066;-78
2023/08/10 12:05:49;;;;;;;4.88;2.25;;;24.90;50.90;;;;;;5037017;28;20045;-78
2023/08/10 12:08:26;;;;;;;4.07;2.05;;;25.00;51.00;;;;;;5020625;28;20033;-78
2023/08/10 12:11:09;;;;;;;3.97;2.53;;;25.20;51.10;;;;;;5037273;28;20041;-78
2023/08/10 12:13:49;;;;;;;3.75;2.00;;;25.30;50.00;;;;;;5037021;28;20491;-78
2023/08/10 12:16:17;;;;;;;6.88;2.17;;;25.40;50.90;;;;;;5037106;28;20037;-78
2023/08/10 12:18:43;;;;;;;4.60;2.75;;;25.40;50.80;;;;;;5036809;28;20064;-77
2023/08/10 12:21:09;;;;;;;3.78;1.90;;;25.60;50.30;;;;;;5020388;28;20045;-77
2023/08/10 12:23:35;;;;;;;4.25;2.50;;;25.60;50.30;;;;;;5020370;28;20037;-77
2023/08/10 12:26:01;;;;;;;4.05;2.35;;;25.70;49.00;;;;;;5036473;28;20499;-77
2023/08/10 12:28:26;;;;;;;4.20;2.80;;;25.80;48.60;;;;;;5020140;28;20033;-77
2023/08/10 12:30:52;;;;;;;4.85;2.67;;;25.80;48.10;;;;;;5036721;28;20069;-77
2023/08/10 12:33:19;;;;;;;4.93;1.90;;;25.80;49.00;;;;;;5036524;28;20510;-77
2023/08/10 12:35:45;;;;;;;5.05;2.85;;;25.80;50.00;;;;;;5036453;28;20047;-77
2023/08/10 12:38:11;;;;;;;4.15;2.53;;;25.90;49.30;;;;;;5019763;28;20045;-77
2023/08/10 12:40:38;;;;;;;7.05;3.45;;;26.00;49.20;;;;;;5036304;28;20128;-77
2023/08/10 12:43:05;;;;;;;4.88;2.40;;;26.00;48.00;;;;;;5036655;28;20391;-77
2023/08/10 12:45:31;;;;;;;4.90;2.40;;;26.10;49.00;;;;;;5019837;28;20110;-77
2023/08/10 12:47:59;;;;;;;4.93;2.28;;;26.20;49.50;;;;;;5019814;28;20063;-77
2023/08/10 12:50:25;;;;;;;3.40;1.88;;;26.20;49.60;;;;;;5036400;28;20439;-77
2023/08/10 12:52:51;;;;;;;4.53;1.90;;;26.30;49.70;;;;;;5019539;28;20516;-77
2023/08/10 12:55:17;;;;;;;3.72;2.10;;;26.30;49.30;;;;;;5036134;28;20048;-77